sensor_id;sensor_type;location;lat;lon;timestamp;temperature;humidity
5621;DHT22;2832;50.864;12.186;2023-07-09T00:01:56;26.80;86.60
5621;DHT22;2832;50.864;12.186;2023-07-09T00:04:26;26.80;86.70
5621;DHT22;2832;50.864;12.186;2023-07-09T00:06:56;26.80;86.70
5621;DHT22;2832;50.864;12.186;2023-07-09T00:09:28;26.80;86.60
5621;DHT22;2832;50.864;12.186;2023-07-09T00:11:57;26.80;86.90
5621;DHT22;2832;50.864;12.186;2023-07-09T00:14:25;26.70;87.00
5621;DHT22;2832;50.864;12.186;2023-07-09T00:16:54;26.70;87.10
5621;DHT22;2832;50.864;12.186;2023-07-09T00:19:23;26.70;87.20
5621;DHT22;2832;50.864;12.186;2023-07-09T00:21:52;26.60;87.30
5621;DHT22;2832;50.864;12.186;2023-07-09T00:24:21;26.60;87.50
5621;DHT22;2832;50.864;12.186;2023-07-09T00:26:50;26.50;87.60
5621;DHT22;2832;50.864;12.186;2023-07-09T00:29:18;26.50;87.60
5621;DHT22;2832;50.864;12.186;2023-07-09T00:31:46;26.50;87.60
5621;DHT22;2832;50.864;12.186;2023-07-09T00:34:15;26.50;87.50
5621;DHT22;2832;50.864;12.186;2023-07-09T00:36:48;26.50;87.60
5621;DHT22;2832;50.864;12.186;2023-07-09T00:39:19;26.50;87.60
5621;DHT22;2832;50.864;12.186;2023-07-09T00:41:48;26.50;87.70
5621;DHT22;2832;50.864;12.186;2023-07-09T00:44:27;26.40;87.80
5621;DHT22;2832;50.864;12.186;2023-07-09T00:47:18;26.40;87.90
5621;DHT22;2832;50.864;12.186;2023-07-09T00:50:00;26.40;87.90
5621;DHT22;2832;50.864;12.186;2023-07-09T00:52:32;26.40;87.90
5621;DHT22;2832;50.864;12.186;2023-07-09T00:55:05;26.40;88.00
5621;DHT22;2832;50.864;12.186;2023-07-09T00:57:37;26.40;88.10
5621;DHT22;2832;50.864;12.186;2023-07-09T01:00:11;26.40;88.10
5621;DHT22;2832;50.864;12.186;2023-07-09T01:02:47;26.30;88.10
5621;DHT22;2832;50.864;12.186;2023-07-09T01:05:20;26.30;88.10
5621;DHT22;2832;50.864;12.186;2023-07-09T01:07:55;26.30;88.10
5621;DHT22;2832;50.864;12.186;2023-07-09T01:10:26;26.30;88.10
5621;DHT22;2832;50.864;12.186;2023-07-09T01:12:56;26.30;88.10
5621;DHT22;2832;50.864;12.186;2023-07-09T01:15:24;26.20;88.10
5621;DHT22;2832;50.864;12.186;2023-07-09T01:17:52;26.20;88.20
5621;DHT22;2832;50.864;12.186;2023-07-09T01:20:21;26.10;88.30
5621;DHT22;2832;50.864;12.186;2023-07-09T01:22:51;26.10;88.40
5621;DHT22;2832;50.864;12.186;2023-07-09T01:25:21;26.20;89.10
5621;DHT22;2832;50.864;12.186;2023-07-09T01:27:52;26.20;88.40
5621;DHT22;2832;50.864;12.186;2023-07-09T01:30:23;26.10;88.40
5621;DHT22;2832;50.864;12.186;2023-07-09T01:32:56;26.10;88.50
5621;DHT22;2832;50.864;12.186;2023-07-09T01:35:30;26.10;88.40
5621;DHT22;2832;50.864;12.186;2023-07-09T01:38:02;26.10;88.40
5621;DHT22;2832;50.864;12.186;2023-07-09T01:40:33;26.10;88.40
5621;DHT22;2832;50.864;12.186;2023-07-09T01:43:02;26.10;88.50
5621;DHT22;2832;50.864;12.186;2023-07-09T01:45:33;26.00;88.50
5621;DHT22;2832;50.864;12.186;2023-07-09T01:48:01;26.00;88.50
5621;DHT22;2832;50.864;12.186;2023-07-09T01:50:31;26.00;88.50
5621;DHT22;2832;50.864;12.186;2023-07-09T01:53:01;26.00;88.50
5621;DHT22;2832;50.864;12.186;2023-07-09T01:55:30;26.00;88.50
5621;DHT22;2832;50.864;12.186;2023-07-09T01:57:57;25.90;88.50
5621;DHT22;2832;50.864;12.186;2023-07-09T02:00:26;25.90;88.60
5621;DHT22;2832;50.864;12.186;2023-07-09T02:02:54;25.90;88.70
5621;DHT22;2832;50.864;12.186;2023-07-09T02:05:26;25.80;88.70
5621;DHT22;2832;50.864;12.186;2023-07-09T02:07:55;25.80;88.80
5621;DHT22;2832;50.864;12.186;2023-07-09T02:10:26;25.80;88.70
5621;DHT22;2832;50.864;12.186;2023-07-09T02:12:54;25.80;88.70
5621;DHT22;2832;50.864;12.186;2023-07-09T02:15:22;25.80;88.70
5621;DHT22;2832;50.864;12.186;2023-07-09T02:17:50;25.70;88.70
5621;DHT22;2832;50.864;12.186;2023-07-09T02:20:19;25.70;88.80
5621;DHT22;2832;50.864;12.186;2023-07-09T02:22:49;25.70;89.00
5621;DHT22;2832;50.864;12.186;2023-07-09T02:25:18;25.70;89.00
5621;DHT22;2832;50.864;12.186;2023-07-09T02:27:49;25.70;89.00
5621;DHT22;2832;50.864;12.186;2023-07-09T02:30:18;25.70;89.00
5621;DHT22;2832;50.864;12.186;2023-07-09T02:32:46;25.70;89.00
5621;DHT22;2832;50.864;12.186;2023-07-09T02:35:15;25.60;89.10
5621;DHT22;2832;50.864;12.186;2023-07-09T02:37:48;25.60;89.10
5621;DHT22;2832;50.864;12.186;2023-07-09T02:40:16;25.60;89.10
5621;DHT22;2832;50.864;12.186;2023-07-09T02:42:44;25.60;89.10
5621;DHT22;2832;50.864;12.186;2023-07-09T02:45:14;25.50;89.10
5621;DHT22;2832;50.864;12.186;2023-07-09T02:47:42;25.50;89.00
5621;DHT22;2832;50.864;12.186;2023-07-09T02:50:10;25.40;88.90
5621;DHT22;2832;50.864;12.186;2023-07-09T02:52:39;25.50;89.10
5621;DHT22;2832;50.864;12.186;2023-07-09T02:55:08;25.50;89.10
5621;DHT22;2832;50.864;12.186;2023-07-09T02:57:36;25.40;89.00
5621;DHT22;2832;50.864;12.186;2023-07-09T03:00:06;25.40;89.10
5621;DHT22;2832;50.864;12.186;2023-07-09T03:02:35;25.40;89.10
5621;DHT22;2832;50.864;12.186;2023-07-09T03:05:39;25.40;89.00
5621;DHT22;2832;50.864;12.186;2023-07-09T03:08:10;25.40;89.10
5621;DHT22;2832;50.864;12.186;2023-07-09T03:10:39;25.40;89.00
5621;DHT22;2832;50.864;12.186;2023-07-09T03:13:08;25.40;88.90
5621;DHT22;2832;50.864;12.186;2023-07-09T03:15:36;25.30;89.00
5621;DHT22;2832;50.864;12.186;2023-07-09T03:18:06;25.30;89.10
5621;DHT22;2832;50.864;12.186;2023-07-09T03:20:34;25.30;89.20
5621;DHT22;2832;50.864;12.186;2023-07-09T03:23:05;25.20;89.20
5621;DHT22;2832;50.864;12.186;2023-07-09T03:25:32;25.20;89.20
5621;DHT22;2832;50.864;12.186;2023-07-09T03:28:01;25.20;89.20
5621;DHT22;2832;50.864;12.186;2023-07-09T03:30:29;25.20;89.20
5621;DHT22;2832;50.864;12.186;2023-07-09T03:32:57;25.20;89.30
5621;DHT22;2832;50.864;12.186;2023-07-09T03:35:26;25.20;89.30
5621;DHT22;2832;50.864;12.186;2023-07-09T03:37:54;25.20;89.20
5621;DHT22;2832;50.864;12.186;2023-07-09T03:40:22;25.20;89.20
5621;DHT22;2832;50.864;12.186;2023-07-09T03:42:50;25.10;89.30
5621;DHT22;2832;50.864;12.186;2023-07-09T03:45:18;25.10;89.30
5621;DHT22;2832;50.864;12.186;2023-07-09T03:47:46;25.10;89.20
5621;DHT22;2832;50.864;12.186;2023-07-09T03:50:14;25.10;89.30
5621;DHT22;2832;50.864;12.186;2023-07-09T03:52:44;25.10;89.30
5621;DHT22;2832;50.864;12.186;2023-07-09T03:55:12;25.00;89.30
5621;DHT22;2832;50.864;12.186;2023-07-09T03:57:40;25.10;89.30
5621;DHT22;2832;50.864;12.186;2023-07-09T04:00:10;25.10;89.40
5621;DHT22;2832;50.864;12.186;2023-07-09T04:02:38;25.00;89.50
5621;DHT22;2832;50.864;12.186;2023-07-09T04:05:07;24.90;89.60
5621;DHT22;2832;50.864;12.186;2023-07-09T04:07:35;24.90;89.70
5621;DHT22;2832;50.864;12.186;2023-07-09T04:10:05;24.80;89.70
5621;DHT22;2832;50.864;12.186;2023-07-09T04:12:33;24.80;90.10
5621;DHT22;2832;50.864;12.186;2023-07-09T04:15:01;24.90;89.80
5621;DHT22;2832;50.864;12.186;2023-07-09T04:17:29;24.80;89.80
5621;DHT22;2832;50.864;12.186;2023-07-09T04:19:57;24.80;89.70
5621;DHT22;2832;50.864;12.186;2023-07-09T04:22:25;24.90;89.70
5621;DHT22;2832;50.864;12.186;2023-07-09T04:24:53;24.90;89.60
5621;DHT22;2832;50.864;12.186;2023-07-09T04:27:22;24.90;89.50
5621;DHT22;2832;50.864;12.186;2023-07-09T04:29:53;24.90;89.50
5621;DHT22;2832;50.864;12.186;2023-07-09T04:32:21;24.90;89.30
5621;DHT22;2832;50.864;12.186;2023-07-09T04:34:49;25.00;89.40
5621;DHT22;2832;50.864;12.186;2023-07-09T04:37:17;24.90;90.00
5621;DHT22;2832;50.864;12.186;2023-07-09T04:39:45;24.90;89.90
5621;DHT22;2832;50.864;12.186;2023-07-09T04:42:16;24.90;89.60
5621;DHT22;2832;50.864;12.186;2023-07-09T04:44:46;24.90;89.50
5621;DHT22;2832;50.864;12.186;2023-07-09T04:47:15;24.90;89.50
5621;DHT22;2832;50.864;12.186;2023-07-09T04:49:43;24.90;89.50
5621;DHT22;2832;50.864;12.186;2023-07-09T04:52:12;24.90;89.40
5621;DHT22;2832;50.864;12.186;2023-07-09T04:54:41;24.90;89.60
5621;DHT22;2832;50.864;12.186;2023-07-09T04:57:11;24.80;90.10
5621;DHT22;2832;50.864;12.186;2023-07-09T04:59:40;24.60;90.30
5621;DHT22;2832;50.864;12.186;2023-07-09T05:02:10;24.40;90.50
5621;DHT22;2832;50.864;12.186;2023-07-09T05:04:38;24.30;90.60
5621;DHT22;2832;50.864;12.186;2023-07-09T05:07:12;24.20;90.70
5621;DHT22;2832;50.864;12.186;2023-07-09T05:09:40;24.10;90.80
5621;DHT22;2832;50.864;12.186;2023-07-09T05:12:10;24.10;90.90
5621;DHT22;2832;50.864;12.186;2023-07-09T05:14:38;24.10;90.90
5621;DHT22;2832;50.864;12.186;2023-07-09T05:17:06;24.10;90.90
5621;DHT22;2832;50.864;12.186;2023-07-09T05:19:36;24.00;90.70
5621;DHT22;2832;50.864;12.186;2023-07-09T05:22:05;24.10;90.80
5621;DHT22;2832;50.864;12.186;2023-07-09T05:24:33;24.10;91.00
5621;DHT22;2832;50.864;12.186;2023-07-09T05:27:01;24.10;91.00
5621;DHT22;2832;50.864;12.186;2023-07-09T05:29:29;24.10;91.00
5621;DHT22;2832;50.864;12.186;2023-07-09T05:31:57;24.10;90.90
5621;DHT22;2832;50.864;12.186;2023-07-09T05:34:25;24.10;90.70
5621;DHT22;2832;50.864;12.186;2023-07-09T05:36:54;24.10;90.30
5621;DHT22;2832;50.864;12.186;2023-07-09T05:39:22;24.10;90.20
5621;DHT22;2832;50.864;12.186;2023-07-09T05:41:50;24.20;90.10
5621;DHT22;2832;50.864;12.186;2023-07-09T05:44:18;24.20;89.90
5621;DHT22;2832;50.864;12.186;2023-07-09T05:46:46;24.30;90.00
5621;DHT22;2832;50.864;12.186;2023-07-09T05:49:15;24.30;90.10
5621;DHT22;2832;50.864;12.186;2023-07-09T05:51:44;24.30;90.10
5621;DHT22;2832;50.864;12.186;2023-07-09T05:54:15;24.30;90.00
5621;DHT22;2832;50.864;12.186;2023-07-09T05:56:43;24.30;90.00
5621;DHT22;2832;50.864;12.186;2023-07-09T05:59:11;24.30;90.00
5621;DHT22;2832;50.864;12.186;2023-07-09T06:01:38;24.30;90.10
5621;DHT22;2832;50.864;12.186;2023-07-09T06:04:49;24.40;90.10
5621;DHT22;2832;50.864;12.186;2023-07-09T06:07:28;24.40;90.10
5621;DHT22;2832;50.864;12.186;2023-07-09T06:10:02;24.50;90.20
5621;DHT22;2832;50.864;12.186;2023-07-09T06:12:29;24.50;90.10
5621;DHT22;2832;50.864;12.186;2023-07-09T06:14:58;24.60;90.00
5621;DHT22;2832;50.864;12.186;2023-07-09T06:17:26;24.60;90.00
5621;DHT22;2832;50.864;12.186;2023-07-09T06:19:55;24.60;90.00
5621;DHT22;2832;50.864;12.186;2023-07-09T06:22:23;24.70;89.90
5621;DHT22;2832;50.864;12.186;2023-07-09T06:24:51;24.70;89.70
5621;DHT22;2832;50.864;12.186;2023-07-09T06:27:20;24.70;89.60
5621;DHT22;2832;50.864;12.186;2023-07-09T06:29:48;24.70;89.70
5621;DHT22;2832;50.864;12.186;2023-07-09T06:32:15;24.70;89.80
5621;DHT22;2832;50.864;12.186;2023-07-09T06:34:43;24.80;89.80
5621;DHT22;2832;50.864;12.186;2023-07-09T06:37:12;24.80;90.00
5621;DHT22;2832;50.864;12.186;2023-07-09T06:39:41;24.80;89.90
5621;DHT22;2832;50.864;12.186;2023-07-09T06:42:09;24.90;90.00
5621;DHT22;2832;50.864;12.186;2023-07-09T06:44:38;24.90;90.00
5621;DHT22;2832;50.864;12.186;2023-07-09T06:47:06;24.90;90.00
5621;DHT22;2832;50.864;12.186;2023-07-09T06:49:34;25.00;90.10
5621;DHT22;2832;50.864;12.186;2023-07-09T06:52:03;25.10;89.70
5621;DHT22;2832;50.864;12.186;2023-07-09T06:54:30;25.10;90.00
5621;DHT22;2832;50.864;12.186;2023-07-09T06:56:58;25.10;90.00
5621;DHT22;2832;50.864;12.186;2023-07-09T06:59:26;25.10;90.00
5621;DHT22;2832;50.864;12.186;2023-07-09T07:01:56;25.20;89.90
5621;DHT22;2832;50.864;12.186;2023-07-09T07:04:26;25.30;90.00
5621;DHT22;2832;50.864;12.186;2023-07-09T07:06:54;25.30;90.00
5621;DHT22;2832;50.864;12.186;2023-07-09T07:09:23;25.30;89.70
5621;DHT22;2832;50.864;12.186;2023-07-09T07:11:51;25.30;89.90
5621;DHT22;2832;50.864;12.186;2023-07-09T07:14:19;25.30;90.00
5621;DHT22;2832;50.864;12.186;2023-07-09T07:16:48;25.40;90.10
5621;DHT22;2832;50.864;12.186;2023-07-09T07:19:18;25.40;90.50
5621;DHT22;2832;50.864;12.186;2023-07-09T07:21:46;25.50;90.60
5621;DHT22;2832;50.864;12.186;2023-07-09T07:24:14;25.50;91.00
5621;DHT22;2832;50.864;12.186;2023-07-09T07:26:42;25.50;90.80
5621;DHT22;2832;50.864;12.186;2023-07-09T07:29:11;25.60;91.60
5621;DHT22;2832;50.864;12.186;2023-07-09T07:31:39;25.60;91.60
5621;DHT22;2832;50.864;12.186;2023-07-09T07:34:07;25.60;92.00
5621;DHT22;2832;50.864;12.186;2023-07-09T07:36:38;25.60;91.50
5621;DHT22;2832;50.864;12.186;2023-07-09T07:39:08;25.70;90.90
5621;DHT22;2832;50.864;12.186;2023-07-09T07:41:40;25.90;89.90
5621;DHT22;2832;50.864;12.186;2023-07-09T07:44:09;26.00;88.80
5621;DHT22;2832;50.864;12.186;2023-07-09T07:46:38;26.30;88.00
5621;DHT22;2832;50.864;12.186;2023-07-09T07:49:09;26.40;86.90
5621;DHT22;2832;50.864;12.186;2023-07-09T07:51:38;26.40;86.80
5621;DHT22;2832;50.864;12.186;2023-07-09T07:54:07;26.40;86.70
5621;DHT22;2832;50.864;12.186;2023-07-09T07:56:36;26.50;86.70
5621;DHT22;2832;50.864;12.186;2023-07-09T07:59:05;26.60;87.20
5621;DHT22;2832;50.864;12.186;2023-07-09T08:01:33;26.70;87.30
5621;DHT22;2832;50.864;12.186;2023-07-09T08:04:02;26.60;87.70
5621;DHT22;2832;50.864;12.186;2023-07-09T08:06:33;26.80;86.70
5621;DHT22;2832;50.864;12.186;2023-07-09T08:09:03;26.90;86.70
5621;DHT22;2832;50.864;12.186;2023-07-09T08:11:31;26.80;86.70
5621;DHT22;2832;50.864;12.186;2023-07-09T08:13:59;27.00;86.50
5621;DHT22;2832;50.864;12.186;2023-07-09T08:16:30;27.00;86.80
5621;DHT22;2832;50.864;12.186;2023-07-09T08:18:59;27.00;85.50
5621;DHT22;2832;50.864;12.186;2023-07-09T08:21:26;26.90;85.50
5621;DHT22;2832;50.864;12.186;2023-07-09T08:23:55;26.90;85.90
5621;DHT22;2832;50.864;12.186;2023-07-09T08:26:25;26.90;84.10
5621;DHT22;2832;50.864;12.186;2023-07-09T08:28:54;26.90;84.70
5621;DHT22;2832;50.864;12.186;2023-07-09T08:31:22;27.00;84.80
5621;DHT22;2832;50.864;12.186;2023-07-09T08:33:50;27.00;84.00
5621;DHT22;2832;50.864;12.186;2023-07-09T08:36:18;27.00;84.10
5621;DHT22;2832;50.864;12.186;2023-07-09T08:38:46;27.00;84.40
5621;DHT22;2832;50.864;12.186;2023-07-09T08:41:26;27.10;84.30
5621;DHT22;2832;50.864;12.186;2023-07-09T08:44:11;27.10;84.20
5621;DHT22;2832;50.864;12.186;2023-07-09T08:46:51;27.20;84.10
5621;DHT22;2832;50.864;12.186;2023-07-09T08:49:26;27.30;84.50
5621;DHT22;2832;50.864;12.186;2023-07-09T08:51:59;27.50;84.70
5621;DHT22;2832;50.864;12.186;2023-07-09T08:54:31;27.50;84.70
5621;DHT22;2832;50.864;12.186;2023-07-09T08:57:09;27.50;84.90
5621;DHT22;2832;50.864;12.186;2023-07-09T08:59:42;27.50;84.80
5621;DHT22;2832;50.864;12.186;2023-07-09T09:02:21;27.60;85.30
5621;DHT22;2832;50.864;12.186;2023-07-09T09:04:51;27.60;85.40
5621;DHT22;2832;50.864;12.186;2023-07-09T09:07:32;27.60;85.20
5621;DHT22;2832;50.864;12.186;2023-07-09T09:10:04;27.70;84.10
5621;DHT22;2832;50.864;12.186;2023-07-09T09:12:38;27.70;84.30
5621;DHT22;2832;50.864;12.186;2023-07-09T09:15:14;27.90;85.10
5621;DHT22;2832;50.864;12.186;2023-07-09T09:17:42;28.20;85.00
5621;DHT22;2832;50.864;12.186;2023-07-09T09:20:16;28.20;83.90
5621;DHT22;2832;50.864;12.186;2023-07-09T09:22:48;28.40;82.80
5621;DHT22;2832;50.864;12.186;2023-07-09T09:25:25;28.80;80.00
5621;DHT22;2832;50.864;12.186;2023-07-09T09:28:01;28.80;81.10
5621;DHT22;2832;50.864;12.186;2023-07-09T09:30:41;28.60;80.30
5621;DHT22;2832;50.864;12.186;2023-07-09T09:33:17;28.50;81.60
5621;DHT22;2832;50.864;12.186;2023-07-09T09:35:45;28.50;82.40
5621;DHT22;2832;50.864;12.186;2023-07-09T09:38:17;28.50;83.30
5621;DHT22;2832;50.864;12.186;2023-07-09T09:40:45;28.50;83.20
5621;DHT22;2832;50.864;12.186;2023-07-09T09:43:16;28.50;82.80
5621;DHT22;2832;50.864;12.186;2023-07-09T09:45:48;28.60;82.10
5621;DHT22;2832;50.864;12.186;2023-07-09T09:48:17;29.20;76.70
5621;DHT22;2832;50.864;12.186;2023-07-09T09:50:47;29.40;76.00
5621;DHT22;2832;50.864;12.186;2023-07-09T09:53:20;29.20;73.70
5621;DHT22;2832;50.864;12.186;2023-07-09T09:55:51;29.40;73.90
5621;DHT22;2832;50.864;12.186;2023-07-09T09:58:28;29.60;73.00
5621;DHT22;2832;50.864;12.186;2023-07-09T10:01:03;29.60;70.90
5621;DHT22;2832;50.864;12.186;2023-07-09T10:03:35;29.80;71.70
5621;DHT22;2832;50.864;12.186;2023-07-09T10:06:07;29.80;73.90
5621;DHT22;2832;50.864;12.186;2023-07-09T10:08:46;29.90;71.20
5621;DHT22;2832;50.864;12.186;2023-07-09T10:11:24;29.80;71.30
5621;DHT22;2832;50.864;12.186;2023-07-09T10:14:04;29.80;70.80
5621;DHT22;2832;50.864;12.186;2023-07-09T10:16:41;29.70;71.40
5621;DHT22;2832;50.864;12.186;2023-07-09T10:19:20;29.70;74.60
5621;DHT22;2832;50.864;12.186;2023-07-09T10:21:57;29.90;74.00
5621;DHT22;2832;50.864;12.186;2023-07-09T10:24:36;29.90;73.50
5621;DHT22;2832;50.864;12.186;2023-07-09T10:27:11;29.70;74.30
5621;DHT22;2832;50.864;12.186;2023-07-09T10:29:59;29.60;73.60
5621;DHT22;2832;50.864;12.186;2023-07-09T10:32:46;29.50;73.40
5621;DHT22;2832;50.864;12.186;2023-07-09T10:35:24;29.50;72.20
5621;DHT22;2832;50.864;12.186;2023-07-09T10:38:15;29.60;71.80
5621;DHT22;2832;50.864;12.186;2023-07-09T10:40:52;29.80;70.30
5621;DHT22;2832;50.864;12.186;2023-07-09T10:43:28;29.60;69.50
5621;DHT22;2832;50.864;12.186;2023-07-09T10:46:02;29.60;70.30
5621;DHT22;2832;50.864;12.186;2023-07-09T10:48:40;30.10;69.40
5621;DHT22;2832;50.864;12.186;2023-07-09T10:51:19;30.20;70.10
5621;DHT22;2832;50.864;12.186;2023-07-09T10:53:52;30.00;67.00
5621;DHT22;2832;50.864;12.186;2023-07-09T10:56:26;29.90;67.10
5621;DHT22;2832;50.864;12.186;2023-07-09T10:59:00;29.80;66.50
5621;DHT22;2832;50.864;12.186;2023-07-09T11:01:38;29.70;66.50
5621;DHT22;2832;50.864;12.186;2023-07-09T11:04:27;29.60;66.30
5621;DHT22;2832;50.864;12.186;2023-07-09T11:07:01;29.50;66.80
5621;DHT22;2832;50.864;12.186;2023-07-09T11:09:32;29.50;67.00
5621;DHT22;2832;50.864;12.186;2023-07-09T11:12:05;30.20;65.80
5621;DHT22;2832;50.864;12.186;2023-07-09T11:14:36;30.40;65.00
5621;DHT22;2832;50.864;12.186;2023-07-09T11:17:13;30.50;64.40
5621;DHT22;2832;50.864;12.186;2023-07-09T11:19:42;30.70;64.00
5621;DHT22;2832;50.864;12.186;2023-07-09T11:22:16;30.30;64.20
5621;DHT22;2832;50.864;12.186;2023-07-09T11:24:49;30.10;65.50
5621;DHT22;2832;50.864;12.186;2023-07-09T11:27:23;30.10;65.70
5621;DHT22;2832;50.864;12.186;2023-07-09T11:29:58;29.90;65.40
5621;DHT22;2832;50.864;12.186;2023-07-09T11:32:29;29.90;65.60
5621;DHT22;2832;50.864;12.186;2023-07-09T11:35:07;29.90;65.30
5621;DHT22;2832;50.864;12.186;2023-07-09T11:37:45;30.10;65.80
5621;DHT22;2832;50.864;12.186;2023-07-09T11:40:16;30.10;66.00
5621;DHT22;2832;50.864;12.186;2023-07-09T11:42:50;30.10;65.20
5621;DHT22;2832;50.864;12.186;2023-07-09T11:45:26;30.10;65.50
5621;DHT22;2832;50.864;12.186;2023-07-09T11:48:00;30.10;65.10
5621;DHT22;2832;50.864;12.186;2023-07-09T11:50:34;30.10;65.30
5621;DHT22;2832;50.864;12.186;2023-07-09T11:56:03;30.20;64.90
5621;DHT22;2832;50.864;12.186;2023-07-09T11:58:31;30.20;64.90
5621;DHT22;2832;50.864;12.186;2023-07-09T12:01:00;30.20;65.60
5621;DHT22;2832;50.864;12.186;2023-07-09T12:03:32;30.30;65.00
5621;DHT22;2832;50.864;12.186;2023-07-09T12:06:05;30.20;65.10
5621;DHT22;2832;50.864;12.186;2023-07-09T12:08:35;30.30;65.30
5621;DHT22;2832;50.864;12.186;2023-07-09T12:11:04;30.40;64.50
5621;DHT22;2832;50.864;12.186;2023-07-09T12:13:37;30.30;64.30
5621;DHT22;2832;50.864;12.186;2023-07-09T12:16:23;30.30;65.20
5621;DHT22;2832;50.864;12.186;2023-07-09T12:18:54;30.40;64.50
5621;DHT22;2832;50.864;12.186;2023-07-09T12:21:22;30.50;64.40
5621;DHT22;2832;50.864;12.186;2023-07-09T12:23:51;30.60;63.80
5621;DHT22;2832;50.864;12.186;2023-07-09T12:26:21;30.50;64.40
5621;DHT22;2832;50.864;12.186;2023-07-09T12:28:52;30.50;63.60
5621;DHT22;2832;50.864;12.186;2023-07-09T12:31:25;31.10;62.70
5621;DHT22;2832;50.864;12.186;2023-07-09T12:33:56;31.00;62.80
5621;DHT22;2832;50.864;12.186;2023-07-09T12:36:26;30.90;63.30
5621;DHT22;2832;50.864;12.186;2023-07-09T12:38:56;31.10;62.20
5621;DHT22;2832;50.864;12.186;2023-07-09T12:41:28;30.90;63.10
5621;DHT22;2832;50.864;12.186;2023-07-09T12:43:58;30.90;62.80
5621;DHT22;2832;50.864;12.186;2023-07-09T12:46:29;30.90;62.40
5621;DHT22;2832;50.864;12.186;2023-07-09T12:49:06;30.70;63.30
5621;DHT22;2832;50.864;12.186;2023-07-09T12:51:37;30.90;63.80
5621;DHT22;2832;50.864;12.186;2023-07-09T12:54:14;30.90;63.30
5621;DHT22;2832;50.864;12.186;2023-07-09T12:56:42;30.90;62.50
5621;DHT22;2832;50.864;12.186;2023-07-09T12:59:18;30.70;65.30
5621;DHT22;2832;50.864;12.186;2023-07-09T13:01:54;30.50;64.70
5621;DHT22;2832;50.864;12.186;2023-07-09T13:04:29;30.60;63.80
5621;DHT22;2832;50.864;12.186;2023-07-09T13:06:58;30.50;67.00
5621;DHT22;2832;50.864;12.186;2023-07-09T13:09:27;30.30;69.50
5621;DHT22;2832;50.864;12.186;2023-07-09T13:11:55;30.30;65.70
5621;DHT22;2832;50.864;12.186;2023-07-09T13:14:32;30.60;64.50
5621;DHT22;2832;50.864;12.186;2023-07-09T13:17:05;30.70;64.00
5621;DHT22;2832;50.864;12.186;2023-07-09T13:19:35;30.70;67.80
5621;DHT22;2832;50.864;12.186;2023-07-09T13:22:05;30.90;63.50
5621;DHT22;2832;50.864;12.186;2023-07-09T13:24:33;30.90;62.60
5621;DHT22;2832;50.864;12.186;2023-07-09T13:27:02;31.00;63.00
5621;DHT22;2832;50.864;12.186;2023-07-09T13:29:37;31.20;63.80
5621;DHT22;2832;50.864;12.186;2023-07-09T13:32:10;31.20;63.50
5621;DHT22;2832;50.864;12.186;2023-07-09T13:34:40;31.10;62.50
5621;DHT22;2832;50.864;12.186;2023-07-09T13:37:13;31.10;62.90
5621;DHT22;2832;50.864;12.186;2023-07-09T13:39:42;31.10;62.90
5621;DHT22;2832;50.864;12.186;2023-07-09T13:42:14;31.10;63.00
5621;DHT22;2832;50.864;12.186;2023-07-09T13:44:46;31.10;62.30
5621;DHT22;2832;50.864;12.186;2023-07-09T13:47:21;31.20;61.80
5621;DHT22;2832;50.864;12.186;2023-07-09T13:49:53;31.60;61.80
5621;DHT22;2832;50.864;12.186;2023-07-09T13:52:23;31.60;61.60
5621;DHT22;2832;50.864;12.186;2023-07-09T13:54:55;31.40;61.30
5621;DHT22;2832;50.864;12.186;2023-07-09T13:57:26;31.20;61.90
5621;DHT22;2832;50.864;12.186;2023-07-09T13:59:54;31.80;61.10
5621;DHT22;2832;50.864;12.186;2023-07-09T14:02:27;31.60;61.20
5621;DHT22;2832;50.864;12.186;2023-07-09T14:05:02;31.60;61.00
5621;DHT22;2832;50.864;12.186;2023-07-09T14:07:36;31.80;61.00
5621;DHT22;2832;50.864;12.186;2023-07-09T14:10:12;31.90;61.40
5621;DHT22;2832;50.864;12.186;2023-07-09T14:12:46;31.60;60.90
5621;DHT22;2832;50.864;12.186;2023-07-09T14:15:18;31.50;61.00
5621;DHT22;2832;50.864;12.186;2023-07-09T14:17:48;31.50;61.60
5621;DHT22;2832;50.864;12.186;2023-07-09T14:20:18;31.80;62.00
5621;DHT22;2832;50.864;12.186;2023-07-09T14:22:48;32.00;61.40
5621;DHT22;2832;50.864;12.186;2023-07-09T14:25:19;32.20;61.60
5621;DHT22;2832;50.864;12.186;2023-07-09T14:27:56;32.10;61.10
5621;DHT22;2832;50.864;12.186;2023-07-09T14:30:28;32.20;61.90
5621;DHT22;2832;50.864;12.186;2023-07-09T14:32:59;32.30;61.50
5621;DHT22;2832;50.864;12.186;2023-07-09T14:35:32;32.10;61.30
5621;DHT22;2832;50.864;12.186;2023-07-09T14:38:06;32.10;61.70
5621;DHT22;2832;50.864;12.186;2023-07-09T14:40:43;31.90;61.70
5621;DHT22;2832;50.864;12.186;2023-07-09T14:43:14;32.00;61.90
5621;DHT22;2832;50.864;12.186;2023-07-09T14:45:47;32.00;62.00
5621;DHT22;2832;50.864;12.186;2023-07-09T14:48:17;32.00;60.80
5621;DHT22;2832;50.864;12.186;2023-07-09T14:50:49;32.20;61.70
5621;DHT22;2832;50.864;12.186;2023-07-09T14:53:22;32.00;60.60
5621;DHT22;2832;50.864;12.186;2023-07-09T14:55:52;32.00;61.40
5621;DHT22;2832;50.864;12.186;2023-07-09T14:58:21;31.80;61.30
5621;DHT22;2832;50.864;12.186;2023-07-09T15:00:52;31.80;62.20
5621;DHT22;2832;50.864;12.186;2023-07-09T15:03:28;32.10;61.30
5621;DHT22;2832;50.864;12.186;2023-07-09T15:06:01;32.00;61.10
5621;DHT22;2832;50.864;12.186;2023-07-09T15:08:30;31.80;60.40
5621;DHT22;2832;50.864;12.186;2023-07-09T15:11:07;31.70;61.10
5621;DHT22;2832;50.864;12.186;2023-07-09T15:13:36;31.80;61.10
5621;DHT22;2832;50.864;12.186;2023-07-09T15:16:08;32.00;61.50
5621;DHT22;2832;50.864;12.186;2023-07-09T15:18:36;31.90;60.60
5621;DHT22;2832;50.864;12.186;2023-07-09T15:21:09;31.70;62.00
5621;DHT22;2832;50.864;12.186;2023-07-09T15:23:42;31.80;62.00
5621;DHT22;2832;50.864;12.186;2023-07-09T15:26:14;32.20;61.80
5621;DHT22;2832;50.864;12.186;2023-07-09T15:28:42;32.20;62.00
5621;DHT22;2832;50.864;12.186;2023-07-09T15:31:11;32.10;61.70
5621;DHT22;2832;50.864;12.186;2023-07-09T15:33:42;32.20;62.20
5621;DHT22;2832;50.864;12.186;2023-07-09T15:36:14;32.20;61.50
5621;DHT22;2832;50.864;12.186;2023-07-09T15:38:43;32.10;61.00
5621;DHT22;2832;50.864;12.186;2023-07-09T15:41:12;32.00;60.00
5621;DHT22;2832;50.864;12.186;2023-07-09T15:43:43;31.90;60.40
5621;DHT22;2832;50.864;12.186;2023-07-09T15:46:17;31.80;61.50
5621;DHT22;2832;50.864;12.186;2023-07-09T15:48:46;31.80;60.60
5621;DHT22;2832;50.864;12.186;2023-07-09T15:51:16;31.80;61.50
5621;DHT22;2832;50.864;12.186;2023-07-09T15:53:44;31.90;61.40
5621;DHT22;2832;50.864;12.186;2023-07-09T15:56:16;32.00;60.60
5621;DHT22;2832;50.864;12.186;2023-07-09T15:58:46;32.00;61.00
5621;DHT22;2832;50.864;12.186;2023-07-09T16:01:14;32.00;61.30
5621;DHT22;2832;50.864;12.186;2023-07-09T16:03:46;32.00;61.70
5621;DHT22;2832;50.864;12.186;2023-07-09T16:06:17;32.00;63.20
5621;DHT22;2832;50.864;12.186;2023-07-09T16:08:46;32.10;61.50
5621;DHT22;2832;50.864;12.186;2023-07-09T16:11:18;32.10;61.80
5621;DHT22;2832;50.864;12.186;2023-07-09T16:13:47;32.10;62.10